• Join FlightAware (Why Join?)
  • Login
  • US Flag 
02:45AM EDT


 

Airport Tracker/Info


-or-


 

Live Flight TrackerFlight Track Log ✈ EJA941 ✈ 09-Oct-2013 ✈ KCLL - KDAL

Flight Track Log - Related Links

Times and Time Zones

All times are in EDT time to prevent confusion due to time zone crossing. See the EJA941 flight status page for this flight to view local times or setup timezone preferences in your user account.

Time Position Orientation Groundspeed Altitude Reporting Facility
EDT Latitude Longitude Course Direction KTS MPH feet Rate Location/Type
09:23PM 30.5753 -96.3606 226° Southwest 141 162 900  Level Houston Center
09:24PM 30.5561 -96.3839 226° Southwest 218 251 3,500 3,720 Climbing Houston Center
09:25PM 30.6200 -96.4036 345° North 270 311 7,200 2,700 Climbing Houston Center
09:26PM 30.7028 -96.3936 North 292 336 9,100 2,460 Climbing Houston Center
09:27PM 30.7914 -96.3839 North 310 357 12,300 2,400 Climbing Houston Center
09:28PM 30.9028 -96.3697 North 385 443 14,000 780 Climbing Houston Center
09:29PM 31.0214 -96.3564 North 416 479 14,000  Level Houston Center
09:30PM 31.1442 -96.3419 North 433 498 14,100  Climbing Houston Center
09:31PM 31.2661 -96.3272 North 438 504 14,100 -60 Level Houston Center
09:32PM 31.3864 -96.3128 North 433 498 14,000 -60 Descending Houston Center
09:33PM 31.5089 -96.3014 North 436 502 14,000  Level Houston Center
09:34PM 31.6294 -96.2894 North 434 499 14,100  Climbing Houston Center
09:35PM 31.7506 -96.2733 North 433 498 14,100 -60 Level Houston Center
09:36PM 31.8711 -96.2725 360° North 431 496 14,000  Descending Houston Center
09:37PM 31.9919 -96.2944 351° North 433 498 14,100  Climbing Houston Center
09:38PM 32.1114 -96.3150 352° North 430 495 14,000 -660 Descending Houston Center
09:39PM 32.2478 -96.3369 352° North 422 486 12,800 -1,560 Descending Houston Center
09:40PM 32.3333 -96.3500 353° North 348 400 11,000 -1,680 Descending Dallas / Fort Worth TRACON
09:41PM 32.4492 -96.3794 348° North 319 367 9,000 -1,320 Descending Fort Worth Center
09:42PM 32.5142 -96.4181 333° Northwest 290 334 8,100 -1,320 Descending Fort Worth Center
09:43PM 32.5919 -96.4642 333° Northwest 285 328 6,400 -1,380 Descending Fort Worth Center
09:44PM 32.6569 -96.5028 333° Northwest 285 328 5,400 -720 Descending Fort Worth Center
09:45PM 32.7219 -96.5639 322° Northwest 285 328 5,000 -240 Descending Fort Worth Center
09:46PM 32.7744 -96.6178 319° Northwest 273 314 5,000  Level Fort Worth Center
09:47PM 32.8167 -96.6667 316° Northwest 282 325 5,100 -300 Climbing Dallas / Fort Worth TRACON
09:48PM 32.8667 -96.7167 320° Northwest 244 281 4,600 -960 Descending Dallas / Fort Worth TRACON
09:49PM 32.9167 -96.8000 306° West 239 275 3,200 -840 Descending Dallas / Fort Worth TRACON
09:50PM 32.9500 -96.8500 308° West 185 213 2,800 -600 Descending Dallas / Fort Worth TRACON
09:51PM 32.9167 -96.9000 232° Southwest 131 151 1,900 -780 Descending Dallas / Fort Worth TRACON
09:52PM 32.8833 -96.8833 157° South 116 133 1,300 -780 Descending Dallas / Fort Worth TRACON